Time;durP1;ratioP1;P1;durP2;ratioP2;P2;SDS_P1;SDS_P2;PMS_P1;PMS_P2;Temp;Humidity;BMP_temperature;BMP_pressure;BME280_temperature;BME280_humidity;BME280_pressure;Samples;Min_cycle;Max_cycle;Signal;HPM_P1;HPM_P2
2023/08/04 07:31:48;;;;;;;8.25;4.32;;;17.50;73.90;;;;;;5084269;28;20145;-78
2023/08/04 07:34:15;;;;;;;13.60;4.70;;;17.50;73.80;;;;;;5089736;28;20044;-73
2023/08/04 07:36:42;;;;;;;8.82;4.10;;;17.40;73.80;;;;;;5090706;28;20363;-89
2023/08/04 07:39:11;;;;;;;9.02;4.55;;;17.50;73.00;;;;;;5089457;28;20402;-87
2023/08/04 07:41:38;;;;;;;16.70;4.18;;;17.50;72.70;;;;;;5073886;28;20106;-83
2023/08/04 07:44:05;;;;;;;8.10;4.13;;;17.40;72.90;;;;;;5094295;28;20036;-86
2023/08/04 07:46:33;;;;;;;9.00;4.53;;;17.30;73.10;;;;;;5104668;28;20068;-76
2023/08/04 07:49:00;;;;;;;17.27;4.53;;;17.30;73.40;;;;;;5109421;28;20056;-77
2023/08/04 07:51:28;;;;;;;12.23;4.40;;;17.30;73.70;;;;;;5108910;28;20032;-87
2023/08/04 07:53:55;;;;;;;13.63;5.25;;;17.30;74.20;;;;;;5109802;28;20073;-83
2023/08/04 07:56:23;;;;;;;10.35;4.40;;;17.30;74.90;;;;;;5085655;28;20505;-81
2023/08/04 07:58:50;;;;;;;8.05;4.03;;;17.30;74.90;;;;;;5089066;28;20094;-84
2023/08/04 08:01:18;;;;;;;14.05;5.13;;;17.30;74.90;;;;;;5074563;28;20366;-84
2023/08/04 08:03:45;;;;;;;13.88;4.72;;;17.30;75.20;;;;;;5078663;28;20042;-83
2023/08/04 08:06:12;;;;;;;12.80;3.92;;;17.30;75.40;;;;;;5091165;28;20047;-82
2023/08/04 08:08:41;;;;;;;12.40;4.57;;;17.30;75.50;;;;;;5091054;28;20055;-83
2023/08/04 08:11:09;;;;;;;14.68;4.72;;;17.20;75.80;;;;;;5107084;28;20107;-84
2023/08/04 08:13:37;;;;;;;12.13;4.32;;;17.20;75.80;;;;;;5076237;28;20074;-83
2023/08/04 08:16:11;;;;;;;9.40;3.95;;;17.20;76.10;;;;;;5088799;28;20505;-82
2023/08/04 08:18:39;;;;;;;9.63;4.00;;;17.30;76.00;;;;;;5110554;28;20088;-83
2023/08/04 08:21:09;;;;;;;8.00;3.78;;;17.20;76.20;;;;;;5130062;28;20088;-78
2023/08/04 08:23:37;;;;;;;8.23;3.90;;;17.20;76.20;;;;;;5111572;28;20465;-82
2023/08/04 08:26:04;;;;;;;15.55;4.28;;;17.20;76.60;;;;;;5111506;28;20039;-79
2023/08/04 08:28:32;;;;;;;7.35;3.50;;;17.20;76.60;;;;;;5103862;28;20032;-77
2023/08/04 08:30:59;;;;;;;7.18;3.20;;;17.20;77.40;;;;;;5109304;28;20697;-83
2023/08/04 12:29:18;;;;;;;14.10;6.05;;;15.50;77.30;;;;;;5093591;28;20070;-71
2023/08/04 12:31:45;;;;;;;12.73;5.70;;;15.50;77.30;;;;;;5092680;28;20085;-72
2023/08/04 12:34:13;;;;;;;20.20;6.63;;;15.40;77.50;;;;;;5094500;28;20473;-71
2023/08/04 12:36:40;;;;;;;16.65;6.05;;;15.30;77.90;;;;;;5076282;28;20044;-71
2023/08/04 12:39:11;;;;;;;14.73;5.78;;;15.30;78.10;;;;;;5092600;28;20036;-71
2023/08/04 12:41:38;;;;;;;15.25;5.72;;;15.30;78.10;;;;;;5095848;28;20220;-71
2023/08/04 12:44:05;;;;;;;16.65;5.75;;;15.30;78.30;;;;;;5095540;28;20054;-71
2023/08/04 12:46:32;;;;;;;20.30;5.78;;;15.20;78.30;;;;;;5095188;28;20080;-71
2023/08/04 12:49:00;;;;;;;20.58;6.07;;;15.20;78.50;;;;;;5091907;28;20481;-71
2023/08/04 12:51:27;;;;;;;18.88;5.80;;;15.30;78.60;;;;;;5094107;28;20078;-71
2023/08/04 12:53:54;;;;;;;20.55;5.47;;;15.30;78.30;;;;;;5094943;28;20028;-71
2023/08/04 12:56:21;;;;;;;14.00;5.30;;;15.20;77.60;;;;;;5094851;28;20363;-71
2023/08/04 12:58:49;;;;;;;15.52;5.38;;;15.20;77.50;;;;;;5094306;28;20040;-71
2023/08/04 13:01:16;;;;;;;12.43;4.95;;;15.30;77.60;;;;;;5094639;28;20032;-71
2023/08/04 13:03:43;;;;;;;12.63;5.25;;;15.30;77.80;;;;;;5093493;28;20497;-71
2023/08/04 13:06:10;;;;;;;12.13;5.30;;;15.20;78.30;;;;;;5091951;28;20060;-71
2023/08/04 13:08:38;;;;;;;14.63;5.53;;;15.10;78.30;;;;;;5091934;28;20117;-71
2023/08/04 13:11:05;;;;;;;12.20;5.32;;;15.10;78.20;;;;;;5093827;28;20063;-71
2023/08/04 13:13:33;;;;;;;10.40;4.78;;;15.10;78.40;;;;;;5094583;28;20098;-71
2023/08/04 13:16:00;;;;;;;9.63;4.10;;;15.00;78.10;;;;;;5094706;28;20118;-71
2023/08/04 13:18:27;;;;;;;8.52;4.20;;;15.00;78.00;;;;;;5091763;28;20477;-71
2023/08/04 13:20:54;;;;;;;10.70;5.03;;;15.00;78.10;;;;;;5093026;28;20067;-71
2023/08/04 13:23:21;;;;;;;14.30;5.20;;;15.10;78.00;;;;;;5093922;28;20111;-71
2023/08/04 13:25:49;;;;;;;10.40;4.88;;;15.00;78.00;;;;;;5094256;28;20052;-71
2023/08/04 13:28:16;;;;;;;8.82;5.00;;;15.00;78.10;;;;;;5091702;28;20060;-71
2023/08/04 13:30:44;;;;;;;8.07;4.95;;;15.00;78.00;;;;;;5093813;28;20044;-71
2023/08/04 13:33:11;;;;;;;13.80;5.15;;;14.90;78.20;;;;;;5091719;28;20397;-71
2023/08/04 13:35:38;;;;;;;9.98;5.30;;;14.90;78.30;;;;;;5093970;28;20032;-71
2023/08/04 13:38:05;;;;;;;11.52;5.38;;;14.90;78.50;;;;;;5092213;28;20032;-71
2023/08/04 13:40:33;;;;;;;11.90;5.30;;;14.90;78.50;;;;;;5092921;28;20064;-71
2023/08/04 13:43:00;;;;;;;7.53;4.78;;;14.90;78.60;;;;;;5092758;28;20111;-71
2023/08/04 13:45:27;;;;;;;9.57;4.97;;;14.80;78.80;;;;;;5092291;28;20040;-71
2023/08/04 13:47:54;;;;;;;14.80;5.30;;;14.80;79.00;;;;;;5091879;28;20034;-71
2023/08/04 13:50:21;;;;;;;13.85;5.43;;;14.80;79.00;;;;;;5092155;28;20050;-71
2023/08/04 13:52:49;;;;;;;11.00;5.15;;;14.70;79.00;;;;;;5075667;28;20032;-71
2023/08/04 13:55:16;;;;;;;12.85;5.90;;;14.80;79.10;;;;;;5073242;28;20029;-71
2023/08/04 13:57:43;;;;;;;10.63;5.55;;;14.70;79.10;;;;;;5075583;28;20036;-71
2023/08/04 14:00:11;;;;;;;9.63;5.70;;;14.70;79.20;;;;;;5093562;28;20067;-71
2023/08/04 14:02:39;;;;;;;16.10;5.80;;;14.70;79.00;;;;;;5074565;28;20029;-71
2023/08/04 14:05:07;;;;;;;12.07;6.10;;;14.70;78.70;;;;;;5091203;28;20065;-71
2023/08/04 14:07:37;;;;;;;12.05;6.18;;;14.80;78.30;;;;;;5091348;28;20024;-71
2023/08/04 14:10:08;;;;;;;9.85;5.90;;;14.80;77.70;;;;;;5073263;28;20047;-71
2023/08/04 14:12:35;;;;;;;15.57;6.45;;;14.80;77.80;;;;;;5073209;28;20158;-71
2023/08/04 14:15:02;;;;;;;17.52;6.68;;;14.80;77.90;;;;;;5071578;28;20040;-71
2023/08/04 14:17:30;;;;;;;13.02;6.13;;;14.80;78.00;;;;;;5090169;28;20024;-71
2023/08/04 14:19:57;;;;;;;11.75;6.30;;;14.80;77.00;;;;;;5092455;28;20032;-71
2023/08/04 14:22:24;;;;;;;9.48;5.55;;;14.90;77.20;;;;;;5093451;28;20032;-71
2023/08/04 14:24:51;;;;;;;10.25;5.78;;;14.90;76.70;;;;;;5092341;28;20028;-71
2023/08/04 14:27:19;;;;;;;14.52;6.05;;;14.80;76.60;;;;;;5091291;28;20032;-71
2023/08/04 14:29:46;;;;;;;20.20;6.30;;;14.80;76.90;;;;;;5090732;28;20054;-71
2023/08/04 14:32:13;;;;;;;11.85;5.47;;;14.80;76.60;;;;;;5091592;28;20370;-71
2023/08/04 14:34:40;;;;;;;14.27;6.00;;;14.80;76.30;;;;;;5092935;28;20121;-71
2023/08/04 14:37:07;;;;;;;13.80;6.28;;;14.70;77.20;;;;;;5091940;28;20107;-71
2023/08/04 14:39:35;;;;;;;14.65;6.28;;;14.70;78.00;;;;;;5091906;28;20054;-71
2023/08/04 14:42:02;;;;;;;14.68;6.75;;;14.70;78.20;;;;;;5092818;28;20052;-71
2023/08/04 14:44:29;;;;;;;10.13;5.35;;;14.70;78.20;;;;;;5092744;28;20036;-71
2023/08/04 14:46:56;;;;;;;13.27;6.05;;;14.70;78.40;;;;;;5091596;28;20036;-71
2023/08/04 14:49:23;;;;;;;13.93;5.97;;;14.60;78.60;;;;;;5090941;28;20449;-71
2023/08/04 14:51:51;;;;;;;9.82;5.32;;;14.60;78.70;;;;;;5092861;28;20040;-71
2023/08/04 14:54:18;;;;;;;10.98;5.70;;;14.50;78.70;;;;;;5092754;28;20028;-71
2023/08/04 14:56:47;;;;;;;8.52;5.32;;;14.50;78.80;;;;;;5091303;28;20640;-71
2023/08/04 14:59:14;;;;;;;10.63;5.38;;;14.50;77.70;;;;;;5091252;28;20035;-71
2023/08/04 15:01:41;;;;;;;8.40;4.95;;;14.40;77.30;;;;;;5092718;28;20032;-71
2023/08/04 15:04:09;;;;;;;10.18;5.05;;;14.40;76.20;;;;;;5092426;28;20028;-71
2023/08/04 15:06:36;;;;;;;7.95;4.72;;;14.40;76.00;;;;;;5092800;28;20454;-71
2023/08/04 15:09:03;;;;;;;10.98;4.60;;;14.40;76.00;;;;;;5091477;28;20046;-71
2023/08/04 15:11:31;;;;;;;6.45;4.22;;;14.40;75.70;;;;;;5092715;28;20058;-71
2023/08/04 15:13:58;;;;;;;8.20;4.20;;;14.50;74.20;;;;;;5090948;28;20032;-71
2023/08/04 15:16:25;;;;;;;8.50;4.63;;;14.50;73.40;;;;;;5092901;28;20044;-71
2023/08/04 15:18:52;;;;;;;11.45;4.80;;;14.50;73.40;;;;;;5091761;28;20032;-71
2023/08/04 15:21:19;;;;;;;10.52;4.78;;;14.50;73.70;;;;;;5092635;28;20055;-71
2023/08/04 15:23:49;;;;;;;7.93;4.57;;;14.50;73.70;;;;;;5090575;28;20107;-71
2023/08/04 15:26:17;;;;;;;7.38;4.47;;;14.50;73.80;;;;;;5091580;28;20234;-71
2023/08/04 15:28:44;;;;;;;7.53;4.60;;;14.50;73.70;;;;;;5089863;28;20514;-71
2023/08/04 15:31:12;;;;;;;10.50;5.05;;;14.50;73.40;;;;;;5091215;28;20040;-71
2023/08/04 15:33:39;;;;;;;8.75;4.82;;;14.50;73.90;;;;;;5092402;28;20092;-71
2023/08/04 15:36:07;;;;;;;12.98;4.93;;;14.40;74.00;;;;;;5090261;28;20123;-71
2023/08/04 15:38:35;;;;;;;10.65;5.13;;;14.30;75.00;;;;;;5091033;28;20032;-71
2023/08/04 15:41:06;;;;;;;6.25;4.57;;;14.20;75.20;;;;;;5093175;28;20031;-71
2023/08/04 15:43:35;;;;;;;11.45;4.78;;;14.20;75.30;;;;;;5094874;28;20489;-71
2023/08/04 15:46:03;;;;;;;10.75;4.72;;;14.10;75.80;;;;;;5095186;28;20043;-71
2023/08/04 15:48:30;;;;;;;9.35;4.97;;;14.00;76.00;;;;;;5093978;28;20044;-71
2023/08/04 15:50:59;;;;;;;8.70;4.80;;;14.10;76.00;;;;;;5093867;28;20043;-71
2023/08/04 15:53:30;;;;;;;10.57;5.15;;;14.10;75.80;;;;;;5096445;28;20036;-71
2023/08/04 15:55:57;;;;;;;;;;;14.10;75.60;;;;;;5097231;28;20107;-71
2023/08/04 15:58:24;;;;;;;8.57;5.07;;;14.10;75.40;;;;;;5095097;28;20342;-71
2023/08/04 16:00:52;;;;;;;11.43;4.90;;;14.10;75.60;;;;;;5078325;28;20028;-71
2023/08/04 16:03:19;;;;;;;10.82;5.28;;;14.00;75.50;;;;;;5095067;28;20039;-71
2023/08/04 16:05:46;;;;;;;8.05;4.88;;;14.00;75.80;;;;;;5095123;28;20508;-71
2023/08/04 16:08:13;;;;;;;7.82;4.97;;;14.10;75.70;;;;;;5094163;28;20063;-71
2023/08/04 16:10:41;;;;;;;9.10;4.88;;;14.10;75.00;;;;;;5095177;28;20089;-71
2023/08/04 16:13:08;;;;;;;9.65;4.50;;;14.20;74.20;;;;;;5095917;28;20032;-71
2023/08/04 16:15:35;;;;;;;8.70;4.25;;;14.20;73.60;;;;;;5095263;28;20040;-71
2023/08/04 16:18:02;;;;;;;7.68;4.07;;;14.20;73.30;;;;;;5094819;28;20103;-71
2023/08/04 16:20:30;;;;;;;6.68;4.13;;;14.30;72.80;;;;;;5092441;28;20123;-71
2023/08/04 16:22:57;;;;;;;8.98;5.00;;;14.20;73.20;;;;;;5095912;28;20103;-71
2023/08/04 16:25:25;;;;;;;7.78;4.10;;;14.20;75.20;;;;;;5094404;28;20093;-71
2023/08/04 16:27:52;;;;;;;7.82;4.43;;;14.20;74.40;;;;;;5094339;28;20039;-71
2023/08/04 16:30:19;;;;;;;11.48;4.53;;;14.20;74.80;;;;;;5095521;28;20044;-71
2023/08/04 16:32:46;;;;;;;9.98;4.38;;;14.20;74.40;;;;;;5095779;28;20024;-71
2023/08/04 16:35:14;;;;;;;13.45;5.53;;;14.20;74.90;;;;;;5095494;28;20027;-71
2023/08/04 16:37:41;;;;;;;9.32;4.38;;;14.20;75.40;;;;;;5093578;28;20516;-71
2023/08/04 16:40:09;;;;;;;15.63;5.85;;;14.20;75.50;;;;;;5094065;28;20119;-71
2023/08/04 16:42:36;;;;;;;11.77;5.50;;;14.10;76.20;;;;;;5094362;28;20032;-71
2023/08/04 16:45:03;;;;;;;10.05;5.45;;;14.10;77.00;;;;;;5076588;28;20036;-71
2023/08/04 16:47:30;;;;;;;10.38;4.90;;;14.00;77.20;;;;;;5093435;28;20053;-71
2023/08/04 16:49:58;;;;;;;9.98;5.30;;;14.00;77.50;;;;;;5095215;28;20489;-71
2023/08/04 16:52:25;;;;;;;8.82;5.00;;;14.00;77.70;;;;;;5076505;28;20170;-71
2023/08/04 16:54:52;;;;;;;10.10;5.07;;;14.10;77.50;;;;;;5094973;28;20076;-71
2023/08/04 16:57:19;;;;;;;11.80;5.10;;;14.20;77.20;;;;;;5093927;28;20059;-71
2023/08/04 16:59:49;;;;;;;10.77;4.10;;;14.20;76.60;;;;;;5092183;28;20441;-71
2023/08/04 17:02:17;;;;;;;8.02;4.00;;;14.20;76.00;;;;;;5094845;28;20111;-71
2023/08/04 17:04:44;;;;;;;11.07;4.70;;;14.40;74.80;;;;;;5094718;28;20034;-71
2023/08/04 17:07:11;;;;;;;10.85;4.68;;;14.30;75.90;;;;;;5094710;28;20090;-71
2023/08/04 17:09:38;;;;;;;8.25;4.07;;;14.20;77.10;;;;;;5093876;28;20036;-71
2023/08/04 17:12:08;;;;;;;6.15;4.18;;;14.20;76.20;;;;;;5094833;28;20509;-71
2023/08/04 17:14:35;;;;;;;7.90;3.88;;;14.10;76.30;;;;;;5094025;28;20024;-72
2023/08/04 17:17:02;;;;;;;6.57;4.13;;;14.10;76.30;;;;;;5092469;28;20032;-71
2023/08/04 17:19:30;;;;;;;8.38;4.18;;;14.10;76.30;;;;;;5090563;28;20060;-71
2023/08/04 17:21:57;;;;;;;12.73;5.07;;;14.00;76.00;;;;;;5075962;28;20089;-71
2023/08/04 17:24:24;;;;;;;13.63;4.78;;;14.00;76.20;;;;;;5076608;28;20450;-71
2023/08/04 17:26:51;;;;;;;11.23;4.72;;;13.90;76.20;;;;;;5094716;28;20035;-71
2023/08/04 17:29:19;;;;;;;13.20;5.72;;;13.80;76.90;;;;;;5093268;28;20040;-71
2023/08/04 17:31:46;;;;;;;12.02;4.80;;;13.70;77.00;;;;;;5094645;28;20032;-71
2023/08/04 17:34:14;;;;;;;11.00;4.60;;;13.70;77.00;;;;;;5093398;28;20040;-71
2023/08/04 17:36:41;;;;;;;14.10;4.68;;;13.80;76.80;;;;;;5076363;28;20111;-71
2023/08/04 17:39:09;;;;;;;10.93;4.18;;;13.80;76.40;;;;;;5092596;28;20034;-71
2023/08/04 17:41:36;;;;;;;8.32;4.13;;;13.90;75.60;;;;;;5094265;28;20086;-71
2023/08/04 17:44:04;;;;;;;10.52;3.95;;;14.00;75.60;;;;;;5093090;28;20482;-71
2023/08/04 17:46:31;;;;;;;8.57;4.28;;;14.10;75.20;;;;;;5093029;28;20107;-71
2023/08/04 17:48:58;;;;;;;8.35;3.60;;;14.00;75.10;;;;;;5092937;28;20056;-71
2023/08/04 17:51:26;;;;;;;6.45;3.30;;;14.10;74.70;;;;;;5094006;28;20043;-71
2023/08/04 17:53:53;;;;;;;8.30;3.50;;;14.10;74.90;;;;;;5093048;28;20031;-70
2023/08/04 17:56:20;;;;;;;5.38;3.08;;;14.10;75.50;;;;;;5075622;28;20043;-71
2023/08/04 17:58:48;;;;;;;7.13;3.30;;;14.10;74.70;;;;;;5093365;28;20036;-71
2023/08/04 18:01:15;;;;;;;5.68;2.92;;;14.20;73.30;;;;;;5092531;28;20486;-71
2023/08/04 18:03:42;;;;;;;4.47;2.88;;;14.20;73.00;;;;;;5090839;28;20398;-71
2023/08/04 18:06:11;;;;;;;7.70;3.22;;;14.20;72.30;;;;;;5093656;28;20036;-71
2023/08/04 18:08:38;;;;;;;8.70;2.80;;;14.20;72.70;;;;;;5091672;28;20511;-71
2023/08/04 18:11:05;;;;;;;4.78;2.83;;;14.20;72.70;;;;;;5092836;28;20124;-71
2023/08/04 18:13:32;;;;;;;4.88;2.65;;;14.20;72.90;;;;;;5092623;28;20038;-71
2023/08/04 18:16:01;;;;;;;4.22;3.10;;;14.20;72.30;;;;;;5092048;28;20174;-71
2023/08/04 18:18:28;;;;;;;5.88;3.38;;;14.30;72.70;;;;;;5093461;28;20040;-71
2023/08/04 18:20:59;;;;;;;6.00;3.25;;;14.30;73.10;;;;;;5092351;28;20424;-71
2023/08/04 18:23:25;;;;;;;;;;;14.30;73.10;;;;;;5093129;28;20036;-72
2023/08/04 18:25:56;;;;;;;5.78;3.30;;;14.30;73.20;;;;;;5093054;28;19915;-72
2023/08/04 18:28:24;;;;;;;6.03;3.33;;;14.30;73.10;;;;;;5089415;28;20044;-71
2023/08/04 18:30:54;;;;;;;4.47;2.90;;;14.20;73.00;;;;;;5090128;28;20039;-71
2023/08/04 18:33:21;;;;;;;;;;;14.20;72.90;;;;;;5107034;28;20028;-71
2023/08/04 18:35:48;;;;;;;4.88;3.17;;;14.20;73.10;;;;;;5067680;28;19966;-71
2023/08/04 18:38:21;;;;;;;5.95;3.10;;;14.20;73.90;;;;;;5068715;28;20024;-70
2023/08/04 18:40:49;;;;;;;6.47;3.28;;;14.10;75.00;;;;;;5087246;28;20048;-70
2023/08/04 18:43:16;;;;;;;5.80;3.45;;;14.00;75.60;;;;;;5072463;28;20035;-70
2023/08/04 18:45:43;;;;;;;6.20;2.92;;;14.00;75.40;;;;;;5089102;28;20047;-70
2023/08/04 18:48:10;;;;;;;5.15;3.17;;;13.90;75.30;;;;;;5089899;28;20032;-71
2023/08/04 18:50:38;;;;;;;6.45;2.95;;;14.00;75.20;;;;;;5083961;28;20040;-70
2023/08/04 18:53:05;;;;;;;8.27;3.40;;;13.90;74.70;;;;;;5089370;28;20036;-70
2023/08/04 18:55:32;;;;;;;4.63;3.20;;;13.90;75.20;;;;;;5088804;28;20397;-70
2023/08/04 18:58:00;;;;;;;4.78;2.90;;;13.90;75.50;;;;;;5087929;28;20447;-72
2023/08/04 19:00:27;;;;;;;4.05;2.70;;;13.90;75.40;;;;;;5087910;28;20040;-69
2023/08/04 19:02:54;;;;;;;4.38;2.88;;;13.80;75.20;;;;;;5090334;28;20485;-69
2023/08/04 19:05:21;;;;;;;7.20;3.38;;;13.80;75.50;;;;;;5090004;28;20387;-69
2023/08/04 19:07:48;;;;;;;4.00;2.90;;;13.80;75.60;;;;;;5086845;28;20486;-69
2023/08/04 19:10:16;;;;;;;4.45;2.80;;;13.80;75.80;;;;;;5089116;28;20052;-71
2023/08/04 19:12:43;;;;;;;4.40;2.65;;;13.90;74.60;;;;;;5072286;28;20032;-70
2023/08/04 19:15:11;;;;;;;4.80;2.80;;;13.90;74.10;;;;;;5089040;28;20067;-69
2023/08/04 19:17:38;;;;;;;4.57;2.80;;;13.90;73.70;;;;;;5088937;28;20032;-70
2023/08/04 19:20:06;;;;;;;5.45;2.85;;;14.00;73.60;;;;;;5087323;28;20085;-70
2023/08/04 19:22:33;;;;;;;5.40;3.10;;;13.90;73.20;;;;;;5089785;28;20067;-70
2023/08/04 19:25:00;;;;;;;4.03;2.75;;;13.90;73.20;;;;;;5087990;28;20157;-70
2023/08/04 19:27:30;;;;;;;4.65;2.90;;;14.00;72.70;;;;;;5087617;28;20028;-70
2023/08/04 19:29:57;;;;;;;6.13;3.15;;;14.00;72.60;;;;;;5088815;28;20076;-71
2023/08/04 19:32:25;;;;;;;4.15;2.75;;;14.00;72.30;;;;;;5089496;28;20046;-71
2023/08/04 19:34:52;;;;;;;5.68;3.05;;;14.10;72.10;;;;;;5087692;28;20025;-72
2023/08/04 19:37:19;;;;;;;7.90;2.67;;;14.10;72.30;;;;;;5087650;28;20051;-71
2023/08/04 19:39:46;;;;;;;4.22;2.78;;;14.20;71.90;;;;;;5087861;28;20212;-70
2023/08/04 19:42:14;;;;;;;3.92;2.45;;;14.10;72.10;;;;;;5083430;28;20493;-71
2023/08/04 19:44:41;;;;;;;3.63;2.90;;;14.20;72.20;;;;;;5085119;28;20036;-69
2023/08/04 19:47:08;;;;;;;5.85;3.17;;;14.10;72.00;;;;;;5089306;28;20036;-69
2023/08/04 19:49:35;;;;;;;7.15;3.05;;;14.10;72.40;;;;;;5085913;28;20070;-69
2023/08/04 19:52:03;;;;;;;8.25;3.33;;;14.10;73.20;;;;;;5089201;28;20035;-70
2023/08/04 19:54:30;;;;;;;6.88;3.10;;;14.10;73.70;;;;;;5088476;28;20054;-70
2023/08/04 19:56:58;;;;;;;4.90;3.00;;;14.10;73.80;;;;;;5084948;28;20028;-69
2023/08/04 19:59:25;;;;;;;5.43;3.00;;;14.00;73.80;;;;;;5088178;28;20066;-70
2023/08/04 20:01:52;;;;;;;3.90;3.00;;;14.00;75.20;;;;;;5088669;28;20040;-71
2023/08/04 20:04:19;;;;;;;7.47;3.30;;;13.90;75.40;;;;;;5087083;28;20122;-70
2023/08/04 20:06:47;;;;;;;4.57;3.15;;;13.90;74.90;;;;;;5088604;28;20067;-70
2023/08/04 20:09:14;;;;;;;6.53;3.25;;;13.90;74.50;;;;;;5087515;28;20106;-70
2023/08/04 20:11:41;;;;;;;5.13;3.30;;;14.00;73.70;;;;;;5088538;28;20460;-69
2023/08/04 20:16:44;;;;;;;9.02;3.65;;;13.80;74.50;;;;;;5087955;28;20063;-81
2023/08/04 20:19:11;;;;;;;12.00;3.50;;;13.80;74.20;;;;;;5087748;28;20063;-82
2023/08/04 20:21:38;;;;;;;8.02;3.58;;;13.80;74.40;;;;;;5086285;28;20498;-80
2023/08/04 20:24:05;;;;;;;7.25;3.72;;;13.80;74.80;;;;;;5063361;28;20487;-80
2023/08/04 20:26:33;;;;;;;7.30;3.45;;;13.80;75.30;;;;;;5068855;28;20574;-80
2023/08/04 20:29:00;;;;;;;9.32;3.53;;;13.80;75.60;;;;;;5076043;28;20067;-82
2023/08/04 20:31:28;;;;;;;7.32;3.60;;;13.80;76.10;;;;;;5071015;28;20044;-80
2023/08/04 20:33:56;;;;;;;9.52;3.95;;;13.70;75.80;;;;;;5077594;28;20043;-85
2023/08/04 20:36:23;;;;;;;8.90;4.25;;;13.70;75.70;;;;;;5092765;28;20028;-81
2023/08/04 20:38:50;;;;;;;10.30;4.30;;;13.70;74.70;;;;;;5088589;28;20035;-80
2023/08/04 20:41:18;;;;;;;8.13;4.65;;;13.70;74.40;;;;;;5072895;28;20039;-81
2023/08/04 20:43:46;;;;;;;10.27;4.88;;;13.70;74.30;;;;;;5080707;28;20512;-84
2023/08/04 20:46:13;;;;;;;13.60;5.20;;;13.70;74.40;;;;;;5089017;28;20401;-81
2023/08/04 20:48:40;;;;;;;8.73;4.80;;;13.70;74.70;;;;;;5092931;28;20039;-82
2023/08/04 20:51:08;;;;;;;7.72;4.60;;;13.70;73.90;;;;;;5092329;28;20409;-82
2023/08/04 20:53:37;;;;;;;10.93;5.10;;;13.70;73.90;;;;;;5091741;28;20904;-82
2023/08/04 20:56:04;;;;;;;8.40;4.57;;;13.70;74.20;;;;;;5074203;28;20123;-79
2023/08/04 20:58:31;;;;;;;11.43;5.05;;;13.70;74.10;;;;;;5087769;28;20171;-82
2023/08/04 21:01:06;;;;;;;8.20;4.68;;;13.70;73.90;;;;;;5073592;28;20089;-81
2023/08/04 21:03:33;;;;;;;6.90;4.57;;;13.70;73.90;;;;;;5088399;28;20048;-80
2023/08/04 21:06:03;;;;;;;9.43;4.82;;;13.70;73.50;;;;;;5071265;28;20119;-77
2023/08/04 21:08:31;;;;;;;8.35;4.80;;;13.70;73.50;;;;;;5071572;28;20428;-75
2023/08/04 21:10:59;;;;;;;7.15;4.35;;;13.70;73.60;;;;;;5071627;28;20380;-75
2023/08/04 21:13:26;;;;;;;8.48;5.38;;;13.70;73.90;;;;;;5072604;28;20068;-75
2023/08/04 21:15:53;;;;;;;8.35;5.13;;;13.70;73.70;;;;;;5073809;28;20043;-73
2023/08/04 21:18:20;;;;;;;8.38;5.03;;;13.70;73.90;;;;;;5070399;28;20357;-76
2023/08/04 21:20:48;;;;;;;9.90;5.00;;;13.70;73.70;;;;;;5071117;28;20052;-76
2023/08/04 21:23:16;;;;;;;11.30;5.32;;;13.70;73.00;;;;;;5073138;28;20098;-76
2023/08/04 21:25:43;;;;;;;8.05;4.85;;;13.70;72.90;;;;;;5074108;28;20044;-77
2023/08/04 21:28:11;;;;;;;8.18;4.70;;;13.70;73.10;;;;;;5070403;28;20554;-78
2023/08/04 21:30:38;;;;;;;13.65;4.70;;;13.70;73.50;;;;;;5036412;28;20048;-78
2023/08/04 21:33:05;;;;;;;10.05;4.60;;;13.70;73.20;;;;;;5071843;28;20029;-78
2023/08/04 21:35:33;;;;;;;7.10;4.70;;;13.70;73.30;;;;;;5061111;28;20040;-78
2023/08/04 21:38:00;;;;;;;9.35;4.65;;;13.70;73.00;;;;;;5082911;28;20036;-78
2023/08/04 21:40:27;;;;;;;6.22;4.35;;;13.70;72.80;;;;;;5090450;28;20036;-76
2023/08/04 21:42:54;;;;;;;9.32;4.68;;;13.80;73.00;;;;;;5088572;28;20107;-77
2023/08/04 21:45:22;;;;;;;10.02;4.60;;;13.80;73.80;;;;;;5089708;28;20085;-76
2023/08/04 21:47:49;;;;;;;8.55;4.82;;;13.70;73.90;;;;;;5056986;28;20036;-76
2023/08/04 21:50:16;;;;;;;12.43;5.00;;;13.80;74.20;;;;;;5076918;28;20458;-76
2023/08/04 21:52:44;;;;;;;7.20;4.50;;;13.70;74.30;;;;;;5072940;28;20112;-76
2023/08/04 21:55:11;;;;;;;9.20;5.13;;;13.70;74.80;;;;;;5072787;28;20059;-76
2023/08/04 21:57:38;;;;;;;8.63;4.95;;;13.70;75.10;;;;;;5071620;28;20040;-77
2023/08/04 22:00:12;;;;;;;12.27;5.50;;;13.70;74.50;;;;;;5078197;28;20053;-76
2023/08/04 22:02:40;;;;;;;10.93;5.50;;;13.70;74.60;;;;;;5073276;28;20111;-74
2023/08/04 22:05:07;;;;;;;8.98;5.28;;;13.70;75.20;;;;;;5082868;28;20447;-75
2023/08/04 22:07:34;;;;;;;10.85;5.10;;;13.70;75.60;;;;;;5085668;28;20040;-75
2023/08/04 22:10:01;;;;;;;9.23;5.35;;;13.70;75.70;;;;;;5084401;28;20048;-76
2023/08/04 22:12:29;;;;;;;13.50;5.30;;;13.70;75.70;;;;;;5088980;28;20043;-74
2023/08/04 22:15:00;;;;;;;13.45;5.20;;;13.70;75.50;;;;;;4979147;28;3062324;-76
2023/08/04 22:17:27;;;;;;;16.25;5.68;;;13.70;75.40;;;;;;5083247;28;20040;-74
2023/08/04 22:19:54;;;;;;;10.68;5.43;;;13.80;75.10;;;;;;5090687;28;20425;-76
2023/08/04 22:22:22;;;;;;;10.45;5.57;;;13.80;74.70;;;;;;5082435;28;20032;-77
2023/08/04 22:24:49;;;;;;;14.80;5.72;;;13.90;75.20;;;;;;5072834;28;20036;-78
2023/08/04 22:27:16;;;;;;;15.10;6.10;;;13.90;74.80;;;;;;5072816;28;20040;-78
2023/08/04 22:29:43;;;;;;;8.98;5.75;;;14.00;74.60;;;;;;5055224;28;20043;-77
2023/08/04 22:32:10;;;;;;;12.45;5.60;;;14.00;74.40;;;;;;5072882;28;20036;-75
2023/08/04 22:34:38;;;;;;;11.35;5.03;;;14.00;74.50;;;;;;5077241;28;20458;-78
2023/08/04 22:37:05;;;;;;;12.80;5.43;;;14.00;74.10;;;;;;5092285;28;20044;-78
2023/08/04 22:39:32;;;;;;;10.57;5.70;;;14.00;74.10;;;;;;5066690;28;20040;-78
2023/08/04 22:41:59;;;;;;;9.00;4.72;;;14.00;74.60;;;;;;5081121;28;20036;-78
2023/08/04 22:44:26;;;;;;;9.35;5.18;;;14.00;73.80;;;;;;5092865;28;20020;-78
2023/08/04 22:46:54;;;;;;;12.98;5.15;;;14.00;73.10;;;;;;5092834;28;20378;-78
2023/08/04 22:49:22;;;;;;;8.30;4.97;;;14.10;74.00;;;;;;5092258;28;20060;-78
2023/08/04 22:51:49;;;;;;;10.48;4.72;;;14.20;74.40;;;;;;5092592;28;20075;-78
2023/08/04 22:54:16;;;;;;;7.53;4.78;;;14.20;74.00;;;;;;5092946;28;20108;-78
2023/08/04 22:56:43;;;;;;;6.15;4.18;;;14.20;73.40;;;;;;5092477;28;20035;-78
2023/08/04 22:59:10;;;;;;;8.55;4.18;;;14.20;72.60;;;;;;5092755;28;20482;-78
2023/08/04 23:01:37;;;;;;;13.32;4.70;;;14.20;72.80;;;;;;5093364;28;20038;-78
2023/08/04 23:04:05;;;;;;;14.30;4.38;;;14.20;73.40;;;;;;5074594;28;20532;-78
2023/08/04 23:06:32;;;;;;;10.38;4.10;;;14.20;73.00;;;;;;5092604;28;20124;-78
2023/08/04 23:08:59;;;;;;;6.43;3.60;;;14.20;73.20;;;;;;5092770;28;20039;-78
2023/08/04 23:11:26;;;;;;;6.35;4.13;;;14.20;72.70;;;;;;5074544;28;20397;-78
2023/08/04 23:13:53;;;;;;;8.45;4.20;;;14.30;72.90;;;;;;5092633;28;20038;-77
2023/08/04 23:16:21;;;;;;;6.68;3.92;;;14.30;73.10;;;;;;5092245;28;20054;-78
2023/08/04 23:18:48;;;;;;;7.70;3.90;;;14.30;72.70;;;;;;5091966;28;20040;-77
2023/08/04 23:21:15;;;;;;;11.20;4.90;;;14.30;73.10;;;;;;5092358;28;20028;-78
2023/08/04 23:23:42;;;;;;;8.88;4.22;;;14.30;72.70;;;;;;5092600;28;20501;-73
2023/08/04 23:26:10;;;;;;;8.18;4.22;;;14.40;72.90;;;;;;5092230;28;20040;-78
2023/08/04 23:28:37;;;;;;;12.43;4.60;;;14.40;72.40;;;;;;5092440;28;20060;-78
2023/08/04 23:31:04;;;;;;;9.60;4.50;;;14.40;72.50;;;;;;5091897;28;20134;-77
2023/08/04 23:33:31;;;;;;;6.18;3.80;;;14.50;72.60;;;;;;5092566;28;20158;-78
